sensor_id;sensor_type;location;lat;lon;timestamp;temperature;humidity
4215;DHT22;2121;48.062;7.850;2022-09-09T00:02:21;16.00;99.90
4215;DHT22;2121;48.062;7.850;2022-09-09T00:08:15;15.90;99.90
4215;DHT22;2121;48.062;7.850;2022-09-09T00:10:45;15.80;99.90
4215;DHT22;2121;48.062;7.850;2022-09-09T00:13:28;15.80;99.90
4215;DHT22;2121;48.062;7.850;2022-09-09T00:16:21;15.80;99.90
4215;DHT22;2121;48.062;7.850;2022-09-09T00:19:10;15.60;99.90
4215;DHT22;2121;48.062;7.850;2022-09-09T00:24:29;15.20;99.90
4215;DHT22;2121;48.062;7.850;2022-09-09T00:27:11;15.20;99.90
4215;DHT22;2121;48.062;7.850;2022-09-09T00:29:51;15.30;99.90
4215;DHT22;2121;48.062;7.850;2022-09-09T00:32:20;15.30;99.90
4215;DHT22;2121;48.062;7.850;2022-09-09T00:35:23;15.30;99.90
4215;DHT22;2121;48.062;7.850;2022-09-09T00:37:53;15.40;99.90
4215;DHT22;2121;48.062;7.850;2022-09-09T00:40:31;15.40;99.90
4215;DHT22;2121;48.062;7.850;2022-09-09T00:46:01;15.20;99.90
4215;DHT22;2121;48.062;7.850;2022-09-09T00:49:15;15.20;99.90
4215;DHT22;2121;48.062;7.850;2022-09-09T00:57:32;15.20;99.90
4215;DHT22;2121;48.062;7.850;2022-09-09T01:03:25;15.30;99.90
4215;DHT22;2121;48.062;7.850;2022-09-09T01:09:07;15.40;99.90
4215;DHT22;2121;48.062;7.850;2022-09-09T01:12:11;15.50;99.90
4215;DHT22;2121;48.062;7.850;2022-09-09T01:14:48;15.60;99.90
4215;DHT22;2121;48.062;7.850;2022-09-09T01:28:38;15.80;99.90
4215;DHT22;2121;48.062;7.850;2022-09-09T01:31:06;15.80;99.90
4215;DHT22;2121;48.062;7.850;2022-09-09T01:33:33;16.00;99.90
4215;DHT22;2121;48.062;7.850;2022-09-09T01:36:29;16.10;99.90
4215;DHT22;2121;48.062;7.850;2022-09-09T01:39:01;16.20;99.90
4215;DHT22;2121;48.062;7.850;2022-09-09T01:41:27;16.20;99.90
4215;DHT22;2121;48.062;7.850;2022-09-09T01:43:54;16.20;99.90
4215;DHT22;2121;48.062;7.850;2022-09-09T01:46:22;16.20;99.90
4215;DHT22;2121;48.062;7.850;2022-09-09T01:48:50;16.30;99.90
4215;DHT22;2121;48.062;7.850;2022-09-09T01:51:17;16.20;99.90
4215;DHT22;2121;48.062;7.850;2022-09-09T01:53:43;16.10;99.90
4215;DHT22;2121;48.062;7.850;2022-09-09T01:59:32;16.00;99.90
4215;DHT22;2121;48.062;7.850;2022-09-09T02:04:53;16.00;99.90
4215;DHT22;2121;48.062;7.850;2022-09-09T02:13:17;16.20;99.90
4215;DHT22;2121;48.062;7.850;2022-09-09T02:16:03;16.20;99.90
4215;DHT22;2121;48.062;7.850;2022-09-09T02:18:48;16.20;99.90
4215;DHT22;2121;48.062;7.850;2022-09-09T02:21:17;16.20;99.90
4215;DHT22;2121;48.062;7.850;2022-09-09T02:23:44;16.20;99.90
4215;DHT22;2121;48.062;7.850;2022-09-09T02:26:13;16.20;99.90
4215;DHT22;2121;48.062;7.850;2022-09-09T02:28:46;16.30;99.90
4215;DHT22;2121;48.062;7.850;2022-09-09T02:31:15;16.40;99.90
4215;DHT22;2121;48.062;7.850;2022-09-09T02:33:47;16.40;99.90
4215;DHT22;2121;48.062;7.850;2022-09-09T02:36:19;16.40;99.90
4215;DHT22;2121;48.062;7.850;2022-09-09T02:38:46;16.40;99.90
4215;DHT22;2121;48.062;7.850;2022-09-09T02:41:24;16.40;99.90
4215;DHT22;2121;48.062;7.850;2022-09-09T02:43:53;16.50;99.90
4215;DHT22;2121;48.062;7.850;2022-09-09T02:49:43;16.40;99.90
4215;DHT22;2121;48.062;7.850;2022-09-09T02:52:16;16.40;99.90
4215;DHT22;2121;48.062;7.850;2022-09-09T02:54:45;16.20;99.90
4215;DHT22;2121;48.062;7.850;2022-09-09T02:57:23;16.10;99.90
4215;DHT22;2121;48.062;7.850;2022-09-09T02:59:51;16.10;99.90
4215;DHT22;2121;48.062;7.850;2022-09-09T03:02:20;16.10;99.90
4215;DHT22;2121;48.062;7.850;2022-09-09T03:04:46;16.10;99.90
4215;DHT22;2121;48.062;7.850;2022-09-09T03:07:16;16.10;99.90
4215;DHT22;2121;48.062;7.850;2022-09-09T03:09:42;16.10;99.90
4215;DHT22;2121;48.062;7.850;2022-09-09T03:12:08;16.00;99.90
4215;DHT22;2121;48.062;7.850;2022-09-09T03:14:36;16.00;99.90
4215;DHT22;2121;48.062;7.850;2022-09-09T03:17:04;15.90;99.90
4215;DHT22;2121;48.062;7.850;2022-09-09T03:19:30;15.90;99.90
4215;DHT22;2121;48.062;7.850;2022-09-09T03:21:57;15.90;99.90
4215;DHT22;2121;48.062;7.850;2022-09-09T03:24:24;15.90;99.90
4215;DHT22;2121;48.062;7.850;2022-09-09T03:26:50;15.90;99.90
4215;DHT22;2121;48.062;7.850;2022-09-09T03:29:16;16.00;99.90
4215;DHT22;2121;48.062;7.850;2022-09-09T03:31:44;16.20;99.90
4215;DHT22;2121;48.062;7.850;2022-09-09T03:34:10;16.30;99.90
4215;DHT22;2121;48.062;7.850;2022-09-09T03:36:36;16.30;99.90
4215;DHT22;2121;48.062;7.850;2022-09-09T03:39:02;16.50;99.90
4215;DHT22;2121;48.062;7.850;2022-09-09T03:41:29;16.40;99.90
4215;DHT22;2121;48.062;7.850;2022-09-09T03:43:55;16.20;99.90
4215;DHT22;2121;48.062;7.850;2022-09-09T03:46:23;16.10;99.90
4215;DHT22;2121;48.062;7.850;2022-09-09T03:48:50;15.90;99.90
4215;DHT22;2121;48.062;7.850;2022-09-09T03:51:18;15.80;99.90
4215;DHT22;2121;48.062;7.850;2022-09-09T03:53:44;15.60;99.90
4215;DHT22;2121;48.062;7.850;2022-09-09T03:56:10;15.50;99.90
4215;DHT22;2121;48.062;7.850;2022-09-09T03:58:36;15.30;99.90
4215;DHT22;2121;48.062;7.850;2022-09-09T04:01:07;15.20;99.90
4215;DHT22;2121;48.062;7.850;2022-09-09T04:03:40;15.20;99.90
4215;DHT22;2121;48.062;7.850;2022-09-09T04:06:08;15.10;99.90
4215;DHT22;2121;48.062;7.850;2022-09-09T04:08:35;15.10;99.90
4215;DHT22;2121;48.062;7.850;2022-09-09T04:11:02;15.10;99.90
4215;DHT22;2121;48.062;7.850;2022-09-09T04:13:32;15.00;99.90
4215;DHT22;2121;48.062;7.850;2022-09-09T04:16:02;15.00;99.90
4215;DHT22;2121;48.062;7.850;2022-09-09T04:18:29;14.90;99.90
4215;DHT22;2121;48.062;7.850;2022-09-09T04:20:55;14.90;99.90
4215;DHT22;2121;48.062;7.850;2022-09-09T04:23:23;14.90;99.90
4215;DHT22;2121;48.062;7.850;2022-09-09T04:25:53;14.80;99.90
4215;DHT22;2121;48.062;7.850;2022-09-09T04:28:22;14.80;99.90
4215;DHT22;2121;48.062;7.850;2022-09-09T04:30:49;14.80;99.90
4215;DHT22;2121;48.062;7.850;2022-09-09T04:33:15;14.80;99.90
4215;DHT22;2121;48.062;7.850;2022-09-09T04:35:46;14.90;99.90
4215;DHT22;2121;48.062;7.850;2022-09-09T04:38:15;15.10;99.90
4215;DHT22;2121;48.062;7.850;2022-09-09T04:40:46;15.30;99.90
4215;DHT22;2121;48.062;7.850;2022-09-09T04:43:12;15.50;99.90
4215;DHT22;2121;48.062;7.850;2022-09-09T04:45:40;15.70;99.90
4215;DHT22;2121;48.062;7.850;2022-09-09T04:48:09;15.90;99.90
4215;DHT22;2121;48.062;7.850;2022-09-09T04:50:35;15.90;99.90
4215;DHT22;2121;48.062;7.850;2022-09-09T04:53:04;16.00;99.90
4215;DHT22;2121;48.062;7.850;2022-09-09T04:55:31;16.10;99.90
4215;DHT22;2121;48.062;7.850;2022-09-09T04:57:57;16.20;99.90
4215;DHT22;2121;48.062;7.850;2022-09-09T05:00:24;16.30;99.90
4215;DHT22;2121;48.062;7.850;2022-09-09T05:02:50;16.40;99.90
4215;DHT22;2121;48.062;7.850;2022-09-09T05:05:16;16.40;99.90
4215;DHT22;2121;48.062;7.850;2022-09-09T05:07:42;16.50;99.90
4215;DHT22;2121;48.062;7.850;2022-09-09T05:10:09;16.60;99.90
4215;DHT22;2121;48.062;7.850;2022-09-09T05:12:35;16.70;99.90
4215;DHT22;2121;48.062;7.850;2022-09-09T05:15:01;16.80;99.90
4215;DHT22;2121;48.062;7.850;2022-09-09T05:17:26;16.90;99.90
4215;DHT22;2121;48.062;7.850;2022-09-09T05:19:53;16.90;99.90
4215;DHT22;2121;48.062;7.850;2022-09-09T05:22:19;17.00;99.90
4215;DHT22;2121;48.062;7.850;2022-09-09T05:24:46;17.00;99.90
4215;DHT22;2121;48.062;7.850;2022-09-09T05:27:12;17.00;99.90
4215;DHT22;2121;48.062;7.850;2022-09-09T05:29:38;17.00;99.90
4215;DHT22;2121;48.062;7.850;2022-09-09T05:32:04;17.10;99.90
4215;DHT22;2121;48.062;7.850;2022-09-09T05:34:30;17.10;99.90
4215;DHT22;2121;48.062;7.850;2022-09-09T05:36:56;17.20;99.90
4215;DHT22;2121;48.062;7.850;2022-09-09T05:39:21;17.20;99.90
4215;DHT22;2121;48.062;7.850;2022-09-09T05:41:47;17.30;99.90
4215;DHT22;2121;48.062;7.850;2022-09-09T05:44:13;17.30;99.90
4215;DHT22;2121;48.062;7.850;2022-09-09T05:46:38;17.30;99.90
4215;DHT22;2121;48.062;7.850;2022-09-09T05:49:05;17.40;99.90
4215;DHT22;2121;48.062;7.850;2022-09-09T05:51:31;17.40;99.90
4215;DHT22;2121;48.062;7.850;2022-09-09T05:53:57;17.40;99.90
4215;DHT22;2121;48.062;7.850;2022-09-09T05:56:28;17.50;99.90
4215;DHT22;2121;48.062;7.850;2022-09-09T05:58:55;17.60;99.90
4215;DHT22;2121;48.062;7.850;2022-09-09T06:01:27;17.60;99.90
4215;DHT22;2121;48.062;7.850;2022-09-09T06:03:54;17.60;99.90
4215;DHT22;2121;48.062;7.850;2022-09-09T06:06:22;17.60;99.90
4215;DHT22;2121;48.062;7.850;2022-09-09T06:08:52;17.60;99.90
4215;DHT22;2121;48.062;7.850;2022-09-09T06:11:22;17.70;99.90
4215;DHT22;2121;48.062;7.850;2022-09-09T06:13:49;17.70;99.90
4215;DHT22;2121;48.062;7.850;2022-09-09T06:16:20;17.80;99.90
4215;DHT22;2121;48.062;7.850;2022-09-09T06:18:52;17.90;99.90
4215;DHT22;2121;48.062;7.850;2022-09-09T06:21:25;18.00;99.90
4215;DHT22;2121;48.062;7.850;2022-09-09T06:23:52;18.00;99.90
4215;DHT22;2121;48.062;7.850;2022-09-09T06:26:32;18.10;99.90
4215;DHT22;2121;48.062;7.850;2022-09-09T06:29:03;18.10;99.90
4215;DHT22;2121;48.062;7.850;2022-09-09T06:31:31;18.20;99.90
4215;DHT22;2121;48.062;7.850;2022-09-09T06:34:00;18.20;99.90
4215;DHT22;2121;48.062;7.850;2022-09-09T06:36:27;18.20;99.90
4215;DHT22;2121;48.062;7.850;2022-09-09T06:38:54;18.30;99.90
4215;DHT22;2121;48.062;7.850;2022-09-09T06:41:23;18.40;99.90
4215;DHT22;2121;48.062;7.850;2022-09-09T06:43:51;18.50;99.90
4215;DHT22;2121;48.062;7.850;2022-09-09T06:46:20;18.50;99.90
4215;DHT22;2121;48.062;7.850;2022-09-09T06:48:57;18.50;99.90
4215;DHT22;2121;48.062;7.850;2022-09-09T06:51:28;18.30;99.90
4215;DHT22;2121;48.062;7.850;2022-09-09T06:53:57;18.20;99.90
4215;DHT22;2121;48.062;7.850;2022-09-09T06:56:35;18.10;99.90
4215;DHT22;2121;48.062;7.850;2022-09-09T06:59:04;18.10;99.90
4215;DHT22;2121;48.062;7.850;2022-09-09T07:01:36;18.10;99.90
4215;DHT22;2121;48.062;7.850;2022-09-09T07:04:04;18.20;99.90
4215;DHT22;2121;48.062;7.850;2022-09-09T07:06:35;18.40;99.90
4215;DHT22;2121;48.062;7.850;2022-09-09T07:09:04;18.50;99.90
4215;DHT22;2121;48.062;7.850;2022-09-09T07:11:36;18.60;99.90
4215;DHT22;2121;48.062;7.850;2022-09-09T07:14:04;18.60;99.90
4215;DHT22;2121;48.062;7.850;2022-09-09T07:16:29;18.60;99.90
4215;DHT22;2121;48.062;7.850;2022-09-09T07:18:57;18.60;99.90
4215;DHT22;2121;48.062;7.850;2022-09-09T07:21:24;18.70;99.90
4215;DHT22;2121;48.062;7.850;2022-09-09T07:23:52;18.80;99.90
4215;DHT22;2121;48.062;7.850;2022-09-09T07:26:19;19.00;99.90
4215;DHT22;2121;48.062;7.850;2022-09-09T07:28:47;19.20;99.90
4215;DHT22;2121;48.062;7.850;2022-09-09T07:31:28;19.30;99.90
4215;DHT22;2121;48.062;7.850;2022-09-09T07:33:59;19.40;99.90
4215;DHT22;2121;48.062;7.850;2022-09-09T07:36:28;19.30;99.90
4215;DHT22;2121;48.062;7.850;2022-09-09T07:38:58;19.50;99.90
4215;DHT22;2121;48.062;7.850;2022-09-09T07:41:28;19.60;99.90
4215;DHT22;2121;48.062;7.850;2022-09-09T07:44:19;19.60;99.90
4215;DHT22;2121;48.062;7.850;2022-09-09T07:46:47;19.30;99.90
4215;DHT22;2121;48.062;7.850;2022-09-09T07:49:13;19.20;99.90
4215;DHT22;2121;48.062;7.850;2022-09-09T07:51:41;19.00;99.90
4215;DHT22;2121;48.062;7.850;2022-09-09T07:54:11;18.90;99.90
4215;DHT22;2121;48.062;7.850;2022-09-09T07:56:43;18.70;99.90
4215;DHT22;2121;48.062;7.850;2022-09-09T07:59:09;18.70;99.90
4215;DHT22;2121;48.062;7.850;2022-09-09T08:01:38;18.70;99.90
4215;DHT22;2121;48.062;7.850;2022-09-09T08:04:06;18.80;99.90
4215;DHT22;2121;48.062;7.850;2022-09-09T08:06:38;18.70;99.90
4215;DHT22;2121;48.062;7.850;2022-09-09T08:09:06;18.90;99.90
4215;DHT22;2121;48.062;7.850;2022-09-09T08:11:34;18.80;99.90
4215;DHT22;2121;48.062;7.850;2022-09-09T08:14:01;18.90;99.90
4215;DHT22;2121;48.062;7.850;2022-09-09T08:16:31;19.00;99.90
4215;DHT22;2121;48.062;7.850;2022-09-09T08:18:58;19.00;99.90
4215;DHT22;2121;48.062;7.850;2022-09-09T08:21:27;19.00;99.90
4215;DHT22;2121;48.062;7.850;2022-09-09T08:23:55;19.00;99.90
4215;DHT22;2121;48.062;7.850;2022-09-09T08:26:27;19.00;99.90
4215;DHT22;2121;48.062;7.850;2022-09-09T08:28:56;19.00;99.90
4215;DHT22;2121;48.062;7.850;2022-09-09T08:31:28;19.10;99.90
4215;DHT22;2121;48.062;7.850;2022-09-09T08:34:05;19.40;99.90
4215;DHT22;2121;48.062;7.850;2022-09-09T08:36:34;19.70;99.90
4215;DHT22;2121;48.062;7.850;2022-09-09T08:39:05;19.70;99.90
4215;DHT22;2121;48.062;7.850;2022-09-09T08:50:27;19.80;99.90
4215;DHT22;2121;48.062;7.850;2022-09-09T08:53:17;19.80;99.90
4215;DHT22;2121;48.062;7.850;2022-09-09T08:55:52;20.10;99.90
4215;DHT22;2121;48.062;7.850;2022-09-09T08:58:20;20.10;99.90
4215;DHT22;2121;48.062;7.850;2022-09-09T09:06:48;20.50;99.90
4215;DHT22;2121;48.062;7.850;2022-09-09T09:12:41;21.40;99.90
4215;DHT22;2121;48.062;7.850;2022-09-09T09:15:30;21.90;99.90
4215;DHT22;2121;48.062;7.850;2022-09-09T09:18:05;21.60;99.90
4215;DHT22;2121;48.062;7.850;2022-09-09T09:20:55;21.70;99.90
4215;DHT22;2121;48.062;7.850;2022-09-09T09:23:33;21.40;99.90
4215;DHT22;2121;48.062;7.850;2022-09-09T09:26:09;21.00;99.90
4215;DHT22;2121;48.062;7.850;2022-09-09T09:28:39;20.60;99.90
4215;DHT22;2121;48.062;7.850;2022-09-09T09:31:14;20.50;99.90
4215;DHT22;2121;48.062;7.850;2022-09-09T09:36:07;20.60;99.90
4215;DHT22;2121;48.062;7.850;2022-09-09T09:38:34;20.70;99.90
4215;DHT22;2121;48.062;7.850;2022-09-09T09:41:01;20.70;99.90
4215;DHT22;2121;48.062;7.850;2022-09-09T09:43:35;20.90;99.90
4215;DHT22;2121;48.062;7.850;2022-09-09T09:46:05;21.10;98.80
4215;DHT22;2121;48.062;7.850;2022-09-09T09:48:45;21.00;99.30
4215;DHT22;2121;48.062;7.850;2022-09-09T09:51:14;21.10;99.30
4215;DHT22;2121;48.062;7.850;2022-09-09T09:53:42;21.00;98.60
4215;DHT22;2121;48.062;7.850;2022-09-09T09:56:12;20.90;98.60
4215;DHT22;2121;48.062;7.850;2022-09-09T10:01:28;21.40;97.60
4215;DHT22;2121;48.062;7.850;2022-09-09T10:04:14;21.50;97.70
4215;DHT22;2121;48.062;7.850;2022-09-09T10:06:46;21.80;97.70
4215;DHT22;2121;48.062;7.850;2022-09-09T10:09:26;21.80;96.20
4215;DHT22;2121;48.062;7.850;2022-09-09T10:12:19;21.60;96.30
4215;DHT22;2121;48.062;7.850;2022-09-09T10:24:41;22.30;95.30
4215;DHT22;2121;48.062;7.850;2022-09-09T10:32:45;21.70;95.50
4215;DHT22;2121;48.062;7.850;2022-09-09T10:35:35;21.40;95.60
4215;DHT22;2121;48.062;7.850;2022-09-09T10:43:45;21.50;96.00
4215;DHT22;2121;48.062;7.850;2022-09-09T10:46:52;21.30;95.60
4215;DHT22;2121;48.062;7.850;2022-09-09T10:52:40;20.80;96.50
4215;DHT22;2121;48.062;7.850;2022-09-09T10:55:27;20.80;96.70
4215;DHT22;2121;48.062;7.850;2022-09-09T10:58:02;21.00;97.00
4215;DHT22;2121;48.062;7.850;2022-09-09T11:00:42;21.30;96.90
4215;DHT22;2121;48.062;7.850;2022-09-09T11:03:23;21.60;96.70
4215;DHT22;2121;48.062;7.850;2022-09-09T11:05:55;22.10;96.10
4215;DHT22;2121;48.062;7.850;2022-09-09T11:08:26;22.30;95.60
4215;DHT22;2121;48.062;7.850;2022-09-09T11:11:12;22.20;94.50
4215;DHT22;2121;48.062;7.850;2022-09-09T11:16:39;21.80;95.30
4215;DHT22;2121;48.062;7.850;2022-09-09T11:19:34;21.80;95.30
4215;DHT22;2121;48.062;7.850;2022-09-09T11:24:49;21.90;93.70
4215;DHT22;2121;48.062;7.850;2022-09-09T11:27:36;21.30;94.70
4215;DHT22;2121;48.062;7.850;2022-09-09T11:36:24;21.50;94.70
4215;DHT22;2121;48.062;7.850;2022-09-09T11:44:41;22.60;94.60
4215;DHT22;2121;48.062;7.850;2022-09-09T11:47:30;22.60;94.40
4215;DHT22;2121;48.062;7.850;2022-09-09T11:52:45;22.60;94.70
4215;DHT22;2121;48.062;7.850;2022-09-09T11:55:31;22.50;95.30
4215;DHT22;2121;48.062;7.850;2022-09-09T11:58:21;22.60;94.50
4215;DHT22;2121;48.062;7.850;2022-09-09T12:00:48;22.80;94.60
4215;DHT22;2121;48.062;7.850;2022-09-09T12:06:25;23.20;95.10
4215;DHT22;2121;48.062;7.850;2022-09-09T12:08:57;22.80;93.80
4215;DHT22;2121;48.062;7.850;2022-09-09T12:11:30;22.40;93.60
4215;DHT22;2121;48.062;7.850;2022-09-09T12:13:58;22.10;93.30
4215;DHT22;2121;48.062;7.850;2022-09-09T12:16:37;22.30;93.30
4215;DHT22;2121;48.062;7.850;2022-09-09T12:19:24;22.80;92.60
4215;DHT22;2121;48.062;7.850;2022-09-09T12:21:58;23.30;92.10
4215;DHT22;2121;48.062;7.850;2022-09-09T12:24:37;23.60;91.80
4215;DHT22;2121;48.062;7.850;2022-09-09T12:32:27;24.30;90.70
4215;DHT22;2121;48.062;7.850;2022-09-09T12:35:00;25.10;90.50
4215;DHT22;2121;48.062;7.850;2022-09-09T12:40:30;24.90;88.90
4215;DHT22;2121;48.062;7.850;2022-09-09T12:46:20;22.90;91.10
4215;DHT22;2121;48.062;7.850;2022-09-09T12:49:02;22.70;91.90
4215;DHT22;2121;48.062;7.850;2022-09-09T12:51:31;22.60;91.50
4215;DHT22;2121;48.062;7.850;2022-09-09T12:53:59;22.50;91.80
4215;DHT22;2121;48.062;7.850;2022-09-09T12:56:28;22.50;92.30
4215;DHT22;2121;48.062;7.850;2022-09-09T12:58:58;22.80;91.60
4215;DHT22;2121;48.062;7.850;2022-09-09T13:01:31;22.80;91.80
4215;DHT22;2121;48.062;7.850;2022-09-09T13:03:59;22.40;91.20
4215;DHT22;2121;48.062;7.850;2022-09-09T13:06:30;21.90;91.00
4215;DHT22;2121;48.062;7.850;2022-09-09T13:08:59;21.60;91.40
4215;DHT22;2121;48.062;7.850;2022-09-09T13:14:28;21.40;92.20
4215;DHT22;2121;48.062;7.850;2022-09-09T13:16:59;21.50;92.40
4215;DHT22;2121;48.062;7.850;2022-09-09T13:19:26;21.50;92.60
4215;DHT22;2121;48.062;7.850;2022-09-09T13:21:55;21.70;92.90
4215;DHT22;2121;48.062;7.850;2022-09-09T13:24:33;21.80;92.50
4215;DHT22;2121;48.062;7.850;2022-09-09T13:27:02;21.90;92.90
4215;DHT22;2121;48.062;7.850;2022-09-09T13:29:31;21.60;93.10
4215;DHT22;2121;48.062;7.850;2022-09-09T13:32:05;21.50;93.60
4215;DHT22;2121;48.062;7.850;2022-09-09T13:34:34;21.00;95.90
4215;DHT22;2121;48.062;7.850;2022-09-09T13:37:19;19.40;99.30
4215;DHT22;2121;48.062;7.850;2022-09-09T13:39:52;18.30;99.90
4215;DHT22;2121;48.062;7.850;2022-09-09T13:42:27;17.80;99.90
4215;DHT22;2121;48.062;7.850;2022-09-09T13:44:55;17.50;99.90
4215;DHT22;2121;48.062;7.850;2022-09-09T13:47:33;17.40;99.90
4215;DHT22;2121;48.062;7.850;2022-09-09T13:50:26;17.50;99.90
4215;DHT22;2121;48.062;7.850;2022-09-09T13:52:55;17.70;99.90
4215;DHT22;2121;48.062;7.850;2022-09-09T13:55:28;18.00;99.90
4215;DHT22;2121;48.062;7.850;2022-09-09T13:58:00;18.00;99.90
4215;DHT22;2121;48.062;7.850;2022-09-09T14:00:29;18.20;99.90
4215;DHT22;2121;48.062;7.850;2022-09-09T14:02:56;18.60;99.90
4215;DHT22;2121;48.062;7.850;2022-09-09T14:05:22;19.50;99.90
4215;DHT22;2121;48.062;7.850;2022-09-09T14:07:49;20.20;99.90
4215;DHT22;2121;48.062;7.850;2022-09-09T14:10:15;20.80;99.90
4215;DHT22;2121;48.062;7.850;2022-09-09T14:12:41;21.10;99.90
4215;DHT22;2121;48.062;7.850;2022-09-09T14:15:09;21.20;99.90
4215;DHT22;2121;48.062;7.850;2022-09-09T14:17:37;21.40;99.80
4215;DHT22;2121;48.062;7.850;2022-09-09T14:20:03;21.80;97.50
4215;DHT22;2121;48.062;7.850;2022-09-09T14:22:37;22.50;97.30
4215;DHT22;2121;48.062;7.850;2022-09-09T14:25:05;22.70;95.70
4215;DHT22;2121;48.062;7.850;2022-09-09T14:27:31;23.10;95.10
4215;DHT22;2121;48.062;7.850;2022-09-09T14:29:58;23.30;95.90
4215;DHT22;2121;48.062;7.850;2022-09-09T14:32:25;23.60;95.00
4215;DHT22;2121;48.062;7.850;2022-09-09T14:34:51;23.80;95.30
4215;DHT22;2121;48.062;7.850;2022-09-09T14:37:22;23.70;95.60
4215;DHT22;2121;48.062;7.850;2022-09-09T14:39:48;23.50;94.40
4215;DHT22;2121;48.062;7.850;2022-09-09T14:42:16;23.30;95.20
4215;DHT22;2121;48.062;7.850;2022-09-09T14:44:44;23.40;95.00
4215;DHT22;2121;48.062;7.850;2022-09-09T14:47:09;23.90;95.60
4215;DHT22;2121;48.062;7.850;2022-09-09T14:49:35;24.40;94.60
4215;DHT22;2121;48.062;7.850;2022-09-09T14:52:03;25.00;94.20
4215;DHT22;2121;48.062;7.850;2022-09-09T14:54:30;26.20;92.60
4215;DHT22;2121;48.062;7.850;2022-09-09T14:56:57;27.00;90.80
4215;DHT22;2121;48.062;7.850;2022-09-09T14:59:24;25.70;91.50
4215;DHT22;2121;48.062;7.850;2022-09-09T15:01:50;24.50;92.70
4215;DHT22;2121;48.062;7.850;2022-09-09T15:04:15;24.00;92.70
4215;DHT22;2121;48.062;7.850;2022-09-09T15:06:42;23.50;93.60
4215;DHT22;2121;48.062;7.850;2022-09-09T15:09:10;22.90;94.40
4215;DHT22;2121;48.062;7.850;2022-09-09T15:11:37;22.60;94.70
4215;DHT22;2121;48.062;7.850;2022-09-09T15:14:07;22.60;95.20
4215;DHT22;2121;48.062;7.850;2022-09-09T15:16:34;22.70;94.00
4215;DHT22;2121;48.062;7.850;2022-09-09T15:19:01;22.70;92.90
4215;DHT22;2121;48.062;7.850;2022-09-09T15:21:33;23.00;93.20
4215;DHT22;2121;48.062;7.850;2022-09-09T15:24:00;23.40;93.00
4215;DHT22;2121;48.062;7.850;2022-09-09T15:26:26;24.00;92.50
4215;DHT22;2121;48.062;7.850;2022-09-09T15:28:53;24.10;92.10
4215;DHT22;2121;48.062;7.850;2022-09-09T15:33:54;23.00;92.00
4215;DHT22;2121;48.062;7.850;2022-09-09T15:38:59;22.20;92.80
4215;DHT22;2121;48.062;7.850;2022-09-09T15:41:26;21.80;93.10
4215;DHT22;2121;48.062;7.850;2022-09-09T15:43:54;21.30;93.80
4215;DHT22;2121;48.062;7.850;2022-09-09T15:46:26;21.00;94.10
4215;DHT22;2121;48.062;7.850;2022-09-09T15:49:04;20.80;94.00
4215;DHT22;2121;48.062;7.850;2022-09-09T15:51:31;20.80;94.10
4215;DHT22;2121;48.062;7.850;2022-09-09T15:53:58;20.60;94.50
4215;DHT22;2121;48.062;7.850;2022-09-09T15:56:25;20.60;94.70
4215;DHT22;2121;48.062;7.850;2022-09-09T15:58:53;20.50;94.40
4215;DHT22;2121;48.062;7.850;2022-09-09T16:01:20;20.40;94.80
4215;DHT22;2121;48.062;7.850;2022-09-09T16:03:46;20.30;95.20
4215;DHT22;2121;48.062;7.850;2022-09-09T16:06:17;20.20;95.20
4215;DHT22;2121;48.062;7.850;2022-09-09T16:08:45;20.00;95.30
4215;DHT22;2121;48.062;7.850;2022-09-09T16:11:37;19.90;95.50
4215;DHT22;2121;48.062;7.850;2022-09-09T16:14:04;19.90;95.90
4215;DHT22;2121;48.062;7.850;2022-09-09T16:16:31;19.70;96.50
4215;DHT22;2121;48.062;7.850;2022-09-09T16:18:59;19.00;98.40
4215;DHT22;2121;48.062;7.850;2022-09-09T16:21:34;18.10;99.90
4215;DHT22;2121;48.062;7.850;2022-09-09T16:24:03;17.40;99.90
4215;DHT22;2121;48.062;7.850;2022-09-09T16:26:32;16.90;99.90
4215;DHT22;2121;48.062;7.850;2022-09-09T16:29:00;16.40;99.90
4215;DHT22;2121;48.062;7.850;2022-09-09T16:31:28;16.10;99.90
4215;DHT22;2121;48.062;7.850;2022-09-09T16:33:55;15.80;99.90
4215;DHT22;2121;48.062;7.850;2022-09-09T16:36:23;15.60;99.90
4215;DHT22;2121;48.062;7.850;2022-09-09T16:38:55;15.50;99.90
4215;DHT22;2121;48.062;7.850;2022-09-09T16:41:23;15.50;99.90
4215;DHT22;2121;48.062;7.850;2022-09-09T16:43:57;15.60;99.90
4215;DHT22;2121;48.062;7.850;2022-09-09T16:46:26;15.60;99.90
4215;DHT22;2121;48.062;7.850;2022-09-09T16:48:53;15.70;99.90
4215;DHT22;2121;48.062;7.850;2022-09-09T16:51:23;15.70;99.90
4215;DHT22;2121;48.062;7.850;2022-09-09T16:53:51;15.70;99.90
4215;DHT22;2121;48.062;7.850;2022-09-09T16:56:22;15.80;99.90
4215;DHT22;2121;48.062;7.850;2022-09-09T16:59:01;15.70;99.90
4215;DHT22;2121;48.062;7.850;2022-09-09T17:01:33;15.70;99.90
4215;DHT22;2121;48.062;7.850;2022-09-09T17:04:06;15.60;99.90
4215;DHT22;2121;48.062;7.850;2022-09-09T17:06:34;15.60;99.90
4215;DHT22;2121;48.062;7.850;2022-09-09T17:09:04;15.70;99.90
4215;DHT22;2121;48.062;7.850;2022-09-09T17:11:32;15.70;99.90
4215;DHT22;2121;48.062;7.850;2022-09-09T17:13:58;15.80;99.90
4215;DHT22;2121;48.062;7.850;2022-09-09T17:16:27;15.80;99.90
4215;DHT22;2121;48.062;7.850;2022-09-09T17:18:55;16.00;99.90
4215;DHT22;2121;48.062;7.850;2022-09-09T17:21:23;16.10;99.90
4215;DHT22;2121;48.062;7.850;2022-09-09T17:23:51;16.10;99.90
4215;DHT22;2121;48.062;7.850;2022-09-09T17:26:19;16.20;99.90
4215;DHT22;2121;48.062;7.850;2022-09-09T17:28:46;16.20;99.90
4215;DHT22;2121;48.062;7.850;2022-09-09T17:31:15;16.40;99.90
4215;DHT22;2121;48.062;7.850;2022-09-09T17:33:48;16.30;99.90
4215;DHT22;2121;48.062;7.850;2022-09-09T17:36:17;16.30;99.90
4215;DHT22;2121;48.062;7.850;2022-09-09T17:38:44;16.30;99.90
4215;DHT22;2121;48.062;7.850;2022-09-09T17:41:19;16.20;99.90
4215;DHT22;2121;48.062;7.850;2022-09-09T17:43:47;16.20;99.90
4215;DHT22;2121;48.062;7.850;2022-09-09T17:48:55;16.10;99.90
4215;DHT22;2121;48.062;7.850;2022-09-09T17:51:24;16.10;99.90
4215;DHT22;2121;48.062;7.850;2022-09-09T17:53:52;16.10;99.90
4215;DHT22;2121;48.062;7.850;2022-09-09T17:56:21;16.10;99.90
4215;DHT22;2121;48.062;7.850;2022-09-09T17:58:49;16.10;99.90
4215;DHT22;2121;48.062;7.850;2022-09-09T18:01:18;16.10;99.90
4215;DHT22;2121;48.062;7.850;2022-09-09T18:03:46;16.00;99.90
4215;DHT22;2121;48.062;7.850;2022-09-09T18:06:16;16.00;99.90
4215;DHT22;2121;48.062;7.850;2022-09-09T18:09:04;16.00;99.90
4215;DHT22;2121;48.062;7.850;2022-09-09T18:11:34;16.00;99.90
4215;DHT22;2121;48.062;7.850;2022-09-09T18:14:04;16.00;99.90
4215;DHT22;2121;48.062;7.850;2022-09-09T18:16:31;16.10;99.90
4215;DHT22;2121;48.062;7.850;2022-09-09T18:19:01;16.20;99.90
4215;DHT22;2121;48.062;7.850;2022-09-09T18:21:31;16.20;99.90
4215;DHT22;2121;48.062;7.850;2022-09-09T18:24:03;16.10;99.90
4215;DHT22;2121;48.062;7.850;2022-09-09T18:26:30;16.10;99.90
4215;DHT22;2121;48.062;7.850;2022-09-09T18:29:00;16.10;99.90
4215;DHT22;2121;48.062;7.850;2022-09-09T18:31:28;16.10;99.90
4215;DHT22;2121;48.062;7.850;2022-09-09T18:33:57;16.10;99.90
4215;DHT22;2121;48.062;7.850;2022-09-09T18:36:27;16.00;99.90
4215;DHT22;2121;48.062;7.850;2022-09-09T18:38:56;15.90;99.90
4215;DHT22;2121;48.062;7.850;2022-09-09T18:41:26;15.90;99.90
4215;DHT22;2121;48.062;7.850;2022-09-09T18:43:58;15.90;99.90
4215;DHT22;2121;48.062;7.850;2022-09-09T18:46:27;15.80;99.90
4215;DHT22;2121;48.062;7.850;2022-09-09T18:48:55;15.80;99.90